logo
Search for airport 
image banner adimage banner adimage banner ad
image banner ad

BISS - Sandskeid

Located in Sandskeid, Iceland

ICAO - BISS, IATA -

Data provided by Airmate  

General information

Coordinates: N64°3'39" W21°34'29"
Elevation is 600 feet MSL.
 
View others Airports in Capital Region

Operational data

Special qualification required
Current time UTC:
Current local time:
Weather at : BIRK - Reykjavik ( 19 km )
METAR: BIRK 240600Z 14025G38KT 8000 -RA BR BKN023 OVC068 10/07 Q1008 RERA
TAF: TAF BIRK 240445Z 2406/2506 14028G40KT 9999 -RA BKN020 TX11/2414Z TN08/2421Z TEMPO 2406/2500 4000 RADZ BKN011 TEMPO 2412/2501 14037G50KT
View NOTAMs / SUP AIP / TFR affecting this airport [VIEW]
Communications frequencies: [VIEW]

Runways:

RWY identifierQFULength (ft)Width (ft)SurfaceLDA (ft)
13262159ASPH
31262159ASPH

Airport contact information

Address: Sandskeid Iceland

Satellite view of BISS